Wetterdaten: Woche 14.11.16 - 20.11.16 (KW46)
Datum Zeit Temp. A. Feuchte A. Luftdruck Regen Wind Richtung Taupunkt Windchill Windben
14.11.2016 00:00 -0,1 C 75 % 1031,9 hPa 0,0 l/m 0,9 km/h N -3,9 C -0,1 C 6,0 km/h
14.11.2016 01:00 0,4 C 76 % 1031,8 hPa 0,0 l/m 3,3 km/h N -3,3 C 0,4 C 10,5 km/h
14.11.2016 02:00 0,5 C 76 % 1031,9 hPa 0,0 l/m 2,5 km/h N -3,2 C 0,5 C 9,6 km/h
14.11.2016 03:00 -0,1 C 78 % 1031,9 hPa 0,0 l/m 0,8 km/h N -3,5 C -0,1 C 6,4 km/h
14.11.2016 04:00 -0,7 C 79 % 1032,2 hPa 0,0 l/m 0,9 km/h N -3,9 C -0,7 C 5,2 km/h
14.11.2016 05:00 -0,8 C 80 % 1032,5 hPa 0,0 l/m 0,6 km/h N -3,8 C -0,8 C 5,6 km/h
14.11.2016 06:00 -0,1 C 80 % 1033,0 hPa 0,0 l/m 1,5 km/h N -3,1 C -0,1 C 6,8 km/h
14.11.2016 07:00 -0,4 C 79 % 1033,6 hPa 0,0 l/m 0,5 km/h N -3,6 C -0,4 C 5,2 km/h
14.11.2016 08:00 -0,7 C 81 % 1034,3 hPa 0,0 l/m 0,6 km/h N -3,7 C -0,7 C 3,2 km/h
14.11.2016 09:00 1,0 C 80 % 1034,4 hPa 0,0 l/m 3,1 km/h N -2,1 C 1,0 C 8,9 km/h
14.11.2016 10:00 2,2 C 76 % 1034,7 hPa 0,0 l/m 1,9 km/h N -1,5 C 2,2 C 8,4 km/h
14.11.2016 11:00 2,9 C 74 % 1034,5 hPa 0,0 l/m 1,8 km/h N -1,3 C 2,9 C 9,6 km/h
14.11.2016 12:00 3,1 C 73 % 1034,3 hPa 0,0 l/m 1,1 km/h N -1,2 C 3,1 C 6,8 km/h
14.11.2016 13:00 3,3 C 73 % 1034,2 hPa 0,0 l/m 2,0 km/h N -1,1 C 3,3 C 8,4 km/h
14.11.2016 14:00 3,3 C 73 % 1034,0 hPa 0,0 l/m 1,8 km/h N -1,0 C 3,3 C 7,6 km/h
14.11.2016 15:00 3,3 C 72 % 1034,0 hPa 0,0 l/m 0,2 km/h N -1,3 C 3,3 C 3,2 km/h
14.11.2016 16:00 2,0 C 73 % 1034,1 hPa 0,0 l/m 0,0 km/h N -2,3 C 2,0 C 0,4 km/h
14.11.2016 17:00 0,6 C 77 % 1034,4 hPa 0,0 l/m 0,0 km/h N -2,9 C 0,6 C 2,0 km/h
14.11.2016 18:00 -0,8 C 79 % 1034,6 hPa 0,0 l/m 0,0 km/h N -3,9 C -0,8 C 0,0 km/h
14.11.2016 19:00 -1,7 C 82 % 1034,7 hPa 0,0 l/m 0,0 km/h N -4,3 C -1,7 C 0,0 km/h
14.11.2016 20:00 -2,2 C 83 % 1035,0 hPa 0,0 l/m 0,0 km/h N -4,7 C -2,2 C 0,0 km/h
14.11.2016 21:00 -2,4 C 84 % 1035,0 hPa 0,0 l/m 0,0 km/h N -4,8 C -2,4 C 0,0 km/h
14.11.2016 22:00 -3,0 C 84 % 1034,8 hPa 0,0 l/m 0,0 km/h N -5,3 C -3,0 C 0,0 km/h
14.11.2016 23:00 -3,6 C 84 % 1034,5 hPa 0,0 l/m 0,0 km/h N -5,9 C -3,6 C 0,0 km/h
15.11.2016 00:00 -3,9 C 84 % 1034,3 hPa 0,0 l/m 0,0 km/h N -6,2 C -3,9 C 0,0 km/h
15.11.2016 01:00 -4,4 C 84 % 1033,9 hPa 0,0 l/m 0,0 km/h N -6,7 C -4,4 C 0,0 km/h
15.11.2016 02:00 -5,0 C 84 % 1033,5 hPa 0,0 l/m 0,0 km/h N -7,3 C -5,0 C 0,0 km/h
15.11.2016 03:00 -5,6 C 84 % 1033,5 hPa 0,0 l/m 0,0 km/h N -7,8 C -5,6 C 0,0 km/h
15.11.2016 04:00 -6,0 C 86 % 1033,6 hPa 0,0 l/m 0,0 km/h N -7,9 C -6,0 C 0,0 km/h
15.11.2016 05:00 -6,2 C 87 % 1033,5 hPa 0,0 l/m 0,0 km/h N -8,1 C -6,2 C 0,0 km/h
15.11.2016 06:00 -6,2 C 86 % 1033,6 hPa 0,0 l/m 0,0 km/h N -8,2 C -6,2 C 0,0 km/h
15.11.2016 07:00 -5,9 C 84 % 1033,9 hPa 0,0 l/m 0,0 km/h N -8,1 C -5,9 C 0,0 km/h
15.11.2016 08:00 -5,3 C 84 % 1033,8 hPa 0,0 l/m 0,0 km/h N -7,6 C -5,3 C 0,0 km/h
15.11.2016 09:00 -3,1 C 84 % 1033,8 hPa 0,0 l/m 0,0 km/h N -5,4 C -3,1 C 0,4 km/h
15.11.2016 10:00 -1,0 C 84 % 1033,5 hPa 0,0 l/m 0,2 km/h N -3,4 C -1,0 C 2,0 km/h
15.11.2016 11:00 0,7 C 84 % 1032,7 hPa 0,0 l/m 0,6 km/h N -1,7 C 0,7 C 4,4 km/h
15.11.2016 12:00 2,0 C 83 % 1032,1 hPa 0,0 l/m 0,1 km/h N -0,7 C 2,0 C 2,8 km/h
15.11.2016 13:00 2,5 C 77 % 1031,5 hPa 0,0 l/m 0,0 km/h N -1,2 C 2,5 C 2,0 km/h
15.11.2016 14:00 3,5 C 70 % 1030,6 hPa 0,0 l/m 0,1 km/h N -1,5 C 3,5 C 2,4 km/h
15.11.2016 15:00 3,3 C 70 % 1030,0 hPa 0,0 l/m 0,0 km/h N -1,7 C 3,3 C 0,4 km/h
15.11.2016 16:00 1,6 C 72 % 1029,9 hPa 0,0 l/m 0,0 km/h N -2,8 C 1,6 C 0,0 km/h
15.11.2016 17:00 0,2 C 78 % 1029,6 hPa 0,0 l/m 0,0 km/h N -3,2 C 0,2 C 0,0 km/h
15.11.2016 18:00 -0,1 C 82 % 1029,3 hPa 0,0 l/m 0,0 km/h N -2,9 C -0,1 C 0,0 km/h
15.11.2016 19:00 0,2 C 83 % 1029,2 hPa 0,0 l/m 0,0 km/h N -2,4 C 0,2 C 0,0 km/h
15.11.2016 20:00 0,4 C 83 % 1029,0 hPa 0,0 l/m 0,0 km/h N -2,1 C 0,4 C 0,0 km/h
15.11.2016 21:00 0,7 C 84 % 1028,2 hPa 0,0 l/m 0,0 km/h N -1,7 C 0,7 C 0,0 km/h
15.11.2016 22:00 1,1 C 84 % 1027,6 hPa 0,3 l/m 0,1 km/h N -1,3 C 1,1 C 2,8 km/h
15.11.2016 23:00 1,3 C 84 % 1027,2 hPa 0,3 l/m 0,4 km/h N -1,1 C 1,3 C 4,4 km/h
16.11.2016 00:00 1,5 C 84 % 1026,8 hPa 0,3 l/m 0,0 km/h N -0,9 C 1,5 C 0,0 km/h
16.11.2016 01:00 1,4 C 84 % 1026,3 hPa 0,5 l/m 0,1 km/h N -1,0 C 1,4 C 1,2 km/h
16.11.2016 02:00 1,2 C 84 % 1025,9 hPa 0,3 l/m 0,1 km/h N -1,2 C 1,2 C 3,6 km/h
16.11.2016 03:00 1,3 C 84 % 1025,4 hPa 0,0 l/m 0,1 km/h N -1,1 C 1,3 C 1,6 km/h
16.11.2016 04:00 1,3 C 84 % 1024,8 hPa 0,3 l/m 0,1 km/h N -1,1 C 1,3 C 2,4 km/h
16.11.2016 05:00 1,5 C 84 % 1024,4 hPa 0,3 l/m 0,0 km/h N -0,9 C 1,5 C 1,6 km/h
16.11.2016 06:00 1,6 C 84 % 1024,0 hPa 0,8 l/m 0,0 km/h N -0,8 C 1,6 C 0,4 km/h
16.11.2016 07:00 1,5 C 84 % 1023,8 hPa 0,3 l/m 0,1 km/h N -0,9 C 1,5 C 4,0 km/h
16.11.2016 08:00 1,6 C 84 % 1023,7 hPa 0,0 l/m 0,1 km/h N -0,8 C 1,6 C 2,8 km/h
16.11.2016 09:00 2,0 C 84 % 1023,3 hPa 0,0 l/m 0,0 km/h N -0,4 C 2,0 C 2,4 km/h
16.11.2016 10:00 2,4 C 84 % 1023,3 hPa 0,0 l/m 0,1 km/h N -0,0 C 2,4 C 2,4 km/h
16.11.2016 11:00 3,0 C 84 % 1022,9 hPa 2,6 l/m 0,1 km/h N 0,6 C 3,0 C 2,8 km/h
16.11.2016 12:00 3,3 C 84 % 1022,3 hPa 0,0 l/m 0,0 km/h N 0,8 C 3,3 C 2,4 km/h
16.11.2016 13:00 3,3 C 84 % 1021,7 hPa 0,5 l/m 0,1 km/h N 0,8 C 3,3 C 3,2 km/h
16.11.2016 14:00 3,3 C 84 % 1021,3 hPa 0,3 l/m 0,1 km/h N 0,9 C 3,3 C 3,2 km/h
16.11.2016 15:00 3,2 C 84 % 1021,0 hPa 0,3 l/m 0,3 km/h N 0,7 C 3,2 C 6,0 km/h
16.11.2016 16:00 3,0 C 84 % 1020,7 hPa 0,0 l/m 0,3 km/h N 0,6 C 3,0 C 5,6 km/h
16.11.2016 17:00 3,0 C 84 % 1020,5 hPa 0,5 l/m 0,1 km/h N 0,6 C 3,0 C 4,0 km/h
16.11.2016 18:00 3,1 C 84 % 1020,1 hPa 0,5 l/m 0,2 km/h N 0,6 C 3,1 C 4,4 km/h
16.11.2016 19:00 3,1 C 84 % 1019,8 hPa 0,3 l/m 0,1 km/h N 0,7 C 3,1 C 4,0 km/h
16.11.2016 20:00 3,1 C 84 % 1019,5 hPa 0,3 l/m 0,1 km/h N 0,7 C 3,1 C 2,0 km/h
16.11.2016 21:00 3,1 C 84 % 1019,3 hPa 0,5 l/m 0,1 km/h N 0,7 C 3,1 C 2,0 km/h
16.11.2016 22:00 3,2 C 84 % 1019,1 hPa 0,0 l/m 0,1 km/h N 0,8 C 3,2 C 2,4 km/h
16.11.2016 23:00 3,2 C 84 % 1019,0 hPa 0,0 l/m 0,1 km/h N 0,8 C 3,2 C 3,2 km/h
17.11.2016 00:00 3,4 C 84 % 1018,7 hPa 0,0 l/m 0,1 km/h N 0,9 C 3,4 C 2,8 km/h
17.11.2016 01:00 3,4 C 84 % 1018,3 hPa 0,3 l/m 0,1 km/h N 1,0 C 3,4 C 2,4 km/h
17.11.2016 02:00 3,5 C 84 % 1018,1 hPa 0,3 l/m 0,2 km/h N 1,0 C 3,5 C 3,6 km/h
17.11.2016 03:00 3,6 C 84 % 1017,7 hPa 0,0 l/m 0,0 km/h N 1,2 C 3,6 C 1,2 km/h
17.11.2016 04:00 3,4 C 84 % 1017,7 hPa 0,0 l/m 0,2 km/h N 1,0 C 3,4 C 4,4 km/h
17.11.2016 05:00 3,1 C 84 % 1017,7 hPa 0,0 l/m 0,4 km/h N 0,7 C 3,1 C 5,2 km/h
17.11.2016 06:00 3,1 C 84 % 1017,4 hPa 0,0 l/m 0,4 km/h N 0,7 C 3,1 C 5,6 km/h
17.11.2016 07:00 3,3 C 84 % 1017,5 hPa 0,0 l/m 0,2 km/h N 0,8 C 3,3 C 4,4 km/h
17.11.2016 08:00 3,6 C 84 % 1017,5 hPa 0,0 l/m 1,0 km/h N 1,1 C 3,6 C 6,0 km/h
17.11.2016 09:00 3,9 C 84 % 1017,5 hPa 0,0 l/m 0,7 km/h N 1,4 C 3,9 C 5,6 km/h
17.11.2016 10:00 4,2 C 83 % 1017,5 hPa 0,0 l/m 1,1 km/h N 1,6 C 4,2 C 7,2 km/h
17.11.2016 11:00 4,4 C 84 % 1016,8 hPa 0,0 l/m 0,8 km/h N 1,9 C 4,4 C 6,4 km/h
17.11.2016 12:00 4,6 C 83 % 1016,6 hPa 0,0 l/m 0,6 km/h N 2,0 C 4,6 C 6,0 km/h
17.11.2016 13:00 4,4 C 84 % 1016,5 hPa 0,0 l/m 1,1 km/h N 2,0 C 4,4 C 6,4 km/h
17.11.2016 14:00 4,3 C 84 % 1016,3 hPa 0,0 l/m 0,5 km/h N 1,8 C 4,3 C 6,4 km/h
17.11.2016 15:00 4,4 C 84 % 1016,2 hPa 0,0 l/m 0,3 km/h N 1,9 C 4,4 C 4,0 km/h
17.11.2016 16:00 4,6 C 84 % 1016,4 hPa 0,0 l/m 0,7 km/h N 2,1 C 4,6 C 6,4 km/h
17.11.2016 17:00 4,8 C 84 % 1016,6 hPa 0,0 l/m 1,1 km/h N 2,3 C 4,8 C 7,6 km/h
17.11.2016 18:00 4,8 C 84 % 1016,3 hPa 0,0 l/m 0,6 km/h N 2,3 C 4,8 C 5,6 km/h
17.11.2016 19:00 4,8 C 84 % 1016,3 hPa 0,0 l/m 0,8 km/h N 2,3 C 4,8 C 6,0 km/h
17.11.2016 20:00 4,8 C 84 % 1016,5 hPa 0,0 l/m 1,3 km/h N 2,4 C 4,8 C 7,2 km/h
17.11.2016 21:00 4,8 C 84 % 1016,5 hPa 0,0 l/m 0,8 km/h N 2,3 C 4,8 C 7,2 km/h
17.11.2016 22:00 4,7 C 84 % 1016,3 hPa 0,0 l/m 0,1 km/h N 2,3 C 4,7 C 4,0 km/h
17.11.2016 23:00 4,7 C 84 % 1015,9 hPa 0,0 l/m 0,4 km/h N 2,2 C 4,7 C 5,2 km/h
18.11.2016 00:00 4,6 C 84 % 1015,5 hPa 0,0 l/m 0,4 km/h N 2,1 C 4,6 C 5,2 km/h
18.11.2016 01:00 4,4 C 84 % 1014,8 hPa 0,0 l/m 0,3 km/h N 1,9 C 4,4 C 3,2 km/h
18.11.2016 02:00 4,2 C 84 % 1014,4 hPa 0,0 l/m 0,2 km/h N 1,7 C 4,2 C 3,6 km/h
18.11.2016 03:00 3,8 C 84 % 1013,8 hPa 0,0 l/m 0,1 km/h N 1,3 C 3,8 C 4,4 km/h
18.11.2016 04:00 3,2 C 84 % 1013,0 hPa 0,0 l/m 0,1 km/h N 0,8 C 3,2 C 3,6 km/h
18.11.2016 05:00 2,9 C 84 % 1012,5 hPa 0,0 l/m 0,2 km/h N 0,5 C 2,9 C 4,4 km/h
18.11.2016 06:00 2,2 C 84 % 1012,8 hPa 0,0 l/m 0,1 km/h N -0,2 C 2,2 C 1,6 km/h
18.11.2016 07:00 2,4 C 84 % 1013,1 hPa 0,0 l/m 0,0 km/h N -0,0 C 2,4 C 0,0 km/h
18.11.2016 08:00 2,8 C 84 % 1013,3 hPa 0,0 l/m 0,0 km/h N 0,3 C 2,8 C 0,0 km/h
18.11.2016 09:00 3,3 C 84 % 1013,1 hPa 0,0 l/m 0,0 km/h N 0,8 C 3,3 C 2,0 km/h
18.11.2016 10:00 3,6 C 84 % 1012,6 hPa 0,0 l/m 0,9 km/h N 1,2 C 3,6 C 7,2 km/h
18.11.2016 11:00 4,0 C 84 % 1011,9 hPa 0,0 l/m 0,7 km/h N 1,4 C 4,0 C 6,8 km/h
18.11.2016 12:00 4,6 C 84 % 1011,1 hPa 0,0 l/m 0,6 km/h N 2,0 C 4,6 C 5,2 km/h
18.11.2016 13:00 5,4 C 83 % 1010,2 hPa 0,0 l/m 0,1 km/h N 2,8 C 5,4 C 3,2 km/h
18.11.2016 14:00 6,5 C 83 % 1009,3 hPa 0,0 l/m 0,0 km/h N 3,9 C 6,5 C 2,4 km/h
18.11.2016 15:00 6,6 C 84 % 1008,7 hPa 0,0 l/m 0,0 km/h N 4,0 C 6,6 C 1,2 km/h
18.11.2016 16:00 5,2 C 84 % 1008,6 hPa 0,0 l/m 0,1 km/h N 2,7 C 5,2 C 1,2 km/h
18.11.2016 17:00 4,0 C 84 % 1008,6 hPa 0,0 l/m 0,0 km/h N 1,6 C 4,0 C 0,8 km/h
18.11.2016 18:00 3,3 C 84 % 1009,0 hPa 0,0 l/m 0,1 km/h N 0,9 C 3,3 C 2,8 km/h
18.11.2016 19:00 3,1 C 84 % 1009,4 hPa 0,0 l/m 0,0 km/h N 0,7 C 3,1 C 0,0 km/h
18.11.2016 20:00 2,9 C 84 % 1010,0 hPa 0,0 l/m 0,1 km/h N 0,4 C 2,9 C 2,4 km/h
18.11.2016 21:00 4,1 C 84 % 1011,4 hPa 0,0 l/m 0,5 km/h N 1,6 C 4,1 C 6,0 km/h
18.11.2016 22:00 4,4 C 84 % 1012,2 hPa 0,0 l/m 2,5 km/h N 1,9 C 4,4 C 7,7 km/h
18.11.2016 23:00 4,3 C 84 % 1013,2 hPa 0,0 l/m 0,6 km/h N 1,9 C 4,3 C 4,8 km/h
19.11.2016 00:00 3,0 C 84 % 1014,3 hPa 0,0 l/m 0,3 km/h N 0,6 C 3,0 C 2,8 km/h
19.11.2016 01:00 2,4 C 84 % 1014,6 hPa 0,0 l/m 0,0 km/h N -0,0 C 2,4 C 0,4 km/h
19.11.2016 02:00 2,3 C 84 % 1014,7 hPa 0,0 l/m 0,0 km/h N -0,1 C 2,3 C 0,0 km/h
19.11.2016 03:00 2,7 C 84 % 1014,6 hPa 0,0 l/m 0,0 km/h N 0,3 C 2,7 C 1,2 km/h
19.11.2016 04:00 3,2 C 84 % 1014,4 hPa 0,0 l/m 0,1 km/h N 0,7 C 3,2 C 1,6 km/h
19.11.2016 05:00 2,8 C 84 % 1014,0 hPa 0,0 l/m 0,0 km/h N 0,4 C 2,8 C 0,0 km/h
19.11.2016 06:00 3,3 C 84 % 1013,4 hPa 0,0 l/m 0,0 km/h N 0,8 C 3,3 C 0,4 km/h
19.11.2016 07:00 3,8 C 84 % 1013,1 hPa 0,0 l/m 0,0 km/h N 1,3 C 3,8 C 0,0 km/h
19.11.2016 08:00 4,0 C 84 % 1012,2 hPa 0,0 l/m 0,1 km/h N 1,5 C 4,0 C 0,8 km/h
19.11.2016 09:00 5,5 C 83 % 1011,4 hPa 0,0 l/m 0,1 km/h N 2,9 C 5,5 C 3,2 km/h
19.11.2016 10:00 7,2 C 83 % 1010,6 hPa 0,0 l/m 0,1 km/h N 4,5 C 7,2 C 1,6 km/h
19.11.2016 11:00 10,3 C 82 % 1009,3 hPa 0,0 l/m 0,4 km/h N 7,3 C 10,3 C 4,4 km/h
19.11.2016 12:00 12,5 C 82 % 1008,7 hPa 0,0 l/m 1,1 km/h N 9,6 C 12,5 C 7,6 km/h
19.11.2016 13:00 14,2 C 81 % 1008,0 hPa 0,0 l/m 1,6 km/h N 11,0 C 14,2 C 10,9 km/h
19.11.2016 14:00 14,9 C 78 % 1007,7 hPa 0,0 l/m 0,4 km/h N 11,1 C 14,9 C 5,6 km/h
19.11.2016 15:00 14,5 C 81 % 1007,2 hPa 0,3 l/m 2,5 km/h N 11,2 C 14,5 C 13,7 km/h
19.11.2016 16:00 13,9 C 79 % 1008,0 hPa 0,0 l/m 4,3 km/h N 10,4 C 13,9 C 14,5 km/h
19.11.2016 17:00 11,0 C 79 % 1009,8 hPa 0,3 l/m 3,8 km/h N 7,5 C 10,8 C 14,9 km/h
19.11.2016 18:00 10,3 C 75 % 1011,3 hPa 0,0 l/m 9,4 km/h N 6,0 C 8,3 C 29,0 km/h
19.11.2016 19:00 9,9 C 73 % 1012,7 hPa 0,0 l/m 11,5 km/h N 5,1 C 6,6 C 36,2 km/h
19.11.2016 20:00 9,1 C 72 % 1013,8 hPa 0,0 l/m 9,6 km/h N 4,4 C 7,0 C 29,0 km/h
19.11.2016 21:00 8,8 C 71 % 1015,2 hPa 0,0 l/m 12,5 km/h N 3,8 C 4,8 C 32,2 km/h
19.11.2016 22:00 8,4 C 72 % 1015,6 hPa 0,0 l/m 9,3 km/h N 3,6 C 6,5 C 25,4 km/h
19.11.2016 23:00 8,2 C 72 % 1015,6 hPa 0,0 l/m 1,8 km/h N 3,4 C 8,2 C 8,1 km/h
20.11.2016 00:00 7,7 C 75 % 1015,6 hPa 0,0 l/m 0,0 km/h N 3,4 C 7,7 C 0,8 km/h
20.11.2016 01:00 7,0 C 79 % 1015,4 hPa 0,0 l/m 0,0 km/h N 3,5 C 7,0 C 0,0 km/h
20.11.2016 02:00 6,8 C 80 % 1015,5 hPa 0,0 l/m 0,0 km/h N 3,6 C 6,8 C 0,8 km/h
20.11.2016 03:00 6,8 C 81 % 1015,3 hPa 0,0 l/m 0,1 km/h N 3,8 C 6,8 C 2,8 km/h
20.11.2016 04:00 6,9 C 82 % 1015,0 hPa 0,0 l/m 0,6 km/h N 4,0 C 6,9 C 6,0 km/h
20.11.2016 05:00 7,0 C 82 % 1014,8 hPa 0,0 l/m 2,0 km/h N 4,1 C 7,0 C 8,0 km/h
20.11.2016 06:00 7,0 C 82 % 1014,4 hPa 0,0 l/m 0,3 km/h N 4,2 C 7,0 C 4,0 km/h
20.11.2016 07:00 7,2 C 82 % 1014,0 hPa 0,0 l/m 0,3 km/h N 4,3 C 7,2 C 4,0 km/h
20.11.2016 08:00 7,2 C 82 % 1013,6 hPa 0,0 l/m 0,2 km/h N 4,4 C 7,2 C 3,2 km/h
20.11.2016 09:00 9,0 C 82 % 1013,0 hPa 0,0 l/m 1,3 km/h N 6,1 C 9,0 C 8,0 km/h
20.11.2016 10:00 11,1 C 79 % 1012,5 hPa 0,0 l/m 2,5 km/h N 7,5 C 11,1 C 14,9 km/h
20.11.2016 11:00 13,1 C 73 % 1011,9 hPa 0,0 l/m 2,8 km/h N 8,3 C 13,1 C 13,7 km/h
20.11.2016 12:00 14,6 C 69 % 1011,2 hPa 0,0 l/m 3,1 km/h N 8,9 C 14,6 C 14,5 km/h
20.11.2016 13:00 15,2 C 67 % 1010,8 hPa 0,0 l/m 4,1 km/h N 9,0 C 15,2 C 18,5 km/h
20.11.2016 14:00 14,1 C 71 % 1010,6 hPa 0,0 l/m 2,0 km/h N 9,0 C 14,1 C 9,3 km/h
20.11.2016 15:00 13,4 C 72 % 1010,6 hPa 0,0 l/m 2,4 km/h N 8,4 C 13,4 C 7,6 km/h
20.11.2016 16:00 12,6 C 72 % 1010,6 hPa 0,0 l/m 1,1 km/h N 7,7 C 12,6 C 8,4 km/h
20.11.2016 17:00 12,0 C 74 % 1010,9 hPa 0,0 l/m 1,9 km/h N 7,5 C 12,0 C 8,0 km/h
20.11.2016 18:00 11,6 C 77 % 1011,2 hPa 0,0 l/m 1,1 km/h N 7,6 C 11,6 C 6,8 km/h
20.11.2016 19:00 11,9 C 79 % 1011,4 hPa 0,0 l/m 2,3 km/h N 8,4 C 11,9 C 8,0 km/h
20.11.2016 20:00 12,3 C 78 % 1011,5 hPa 0,0 l/m 2,9 km/h N 8,6 C 12,3 C 9,7 km/h
20.11.2016 21:00 12,7 C 75 % 1011,8 hPa 0,0 l/m 2,4 km/h N 8,3 C 12,7 C 10,1 km/h
20.11.2016 22:00 12,9 C 73 % 1012,2 hPa 0,0 l/m 1,9 km/h N 8,1 C 12,9 C 10,9 km/h
20.11.2016 23:00 13,1 C 68 % 1012,1 hPa 0,0 l/m 2,5 km/h N 7,4 C 13,1 C 10,1 km/h
Min-Datum _ 15.11.16 20.11.16 19.11.16 - 14.11.16 - 15.11.16 15.11.16 14.11.16
_ Min-Zeit 05:45 12:45 15:30 - 04:00 - 06:00 05:45 08:00
Minimum _ -6,3 C 66 % 1007,0 hPa - 0,0 km/h - -8,5 C -6,3 C 0,0 km/h
Max-Datum _ 20.11.16 15.11.16 14.11.16 16.11.16 19.11.16 - 19.11.16 20.11.16 19.11.16
_ Max-Zeit 13:30 04:00 20:30 11:30 21:30 - 14:45 12:45 19:45
Maximum _ 15,4 C 92 % 1035,1 hPa 2,6 l/m 14,3 km/h
N
- 11,3 C 15,3 C 38,6 km/h
N
Durchschnitt _ 3,9 C 81 % 1020,2 hPa #9,9 l/m 0,9 km/h N 1,0 C 3,9 C 5,0 km/h